sensor_id;sensor_type;location;lat;lon;timestamp;temperature;humidity
1453;DHT22;720;47.738;7.998;2023-09-08T00:00:56;18.00;99.90
1453;DHT22;720;47.738;7.998;2023-09-08T00:03:23;18.00;99.90
1453;DHT22;720;47.738;7.998;2023-09-08T00:05:49;18.10;99.90
1453;DHT22;720;47.738;7.998;2023-09-08T00:08:15;18.10;99.90
1453;DHT22;720;47.738;7.998;2023-09-08T00:10:41;18.10;99.90
1453;DHT22;720;47.738;7.998;2023-09-08T00:13:07;18.20;99.90
1453;DHT22;720;47.738;7.998;2023-09-08T00:15:36;18.10;99.90
1453;DHT22;720;47.738;7.998;2023-09-08T00:18:02;18.00;99.90
1453;DHT22;720;47.738;7.998;2023-09-08T00:20:28;17.90;99.90
1453;DHT22;720;47.738;7.998;2023-09-08T00:22:54;17.80;99.90
1453;DHT22;720;47.738;7.998;2023-09-08T00:25:19;17.80;99.90
1453;DHT22;720;47.738;7.998;2023-09-08T00:27:45;17.80;99.90
1453;DHT22;720;47.738;7.998;2023-09-08T00:30:11;17.80;99.90
1453;DHT22;720;47.738;7.998;2023-09-08T00:32:36;17.80;99.90
1453;DHT22;720;47.738;7.998;2023-09-08T00:35:02;17.80;99.90
1453;DHT22;720;47.738;7.998;2023-09-08T00:37:28;17.80;99.90
1453;DHT22;720;47.738;7.998;2023-09-08T00:39:53;17.90;99.90
1453;DHT22;720;47.738;7.998;2023-09-08T00:42:19;18.00;99.90
1453;DHT22;720;47.738;7.998;2023-09-08T00:44:45;17.90;99.90
1453;DHT22;720;47.738;7.998;2023-09-08T00:47:11;17.90;99.90
1453;DHT22;720;47.738;7.998;2023-09-08T00:49:36;17.80;99.90
1453;DHT22;720;47.738;7.998;2023-09-08T00:52:03;17.70;99.90
1453;DHT22;720;47.738;7.998;2023-09-08T00:54:28;17.70;99.90
1453;DHT22;720;47.738;7.998;2023-09-08T00:56:56;17.70;99.90
1453;DHT22;720;47.738;7.998;2023-09-08T00:59:25;17.70;99.90
1453;DHT22;720;47.738;7.998;2023-09-08T01:01:51;17.70;99.90
1453;DHT22;720;47.738;7.998;2023-09-08T01:04:17;17.60;99.90
1453;DHT22;720;47.738;7.998;2023-09-08T01:06:44;17.70;99.90
1453;DHT22;720;47.738;7.998;2023-09-08T01:09:11;17.70;99.90
1453;DHT22;720;47.738;7.998;2023-09-08T01:11:37;17.80;99.90
1453;DHT22;720;47.738;7.998;2023-09-08T01:14:02;17.70;99.90
1453;DHT22;720;47.738;7.998;2023-09-08T01:16:28;17.80;99.90
1453;DHT22;720;47.738;7.998;2023-09-08T01:18:54;17.80;99.90
1453;DHT22;720;47.738;7.998;2023-09-08T01:26:59;17.70;99.90
1453;DHT22;720;47.738;7.998;2023-09-08T01:29:25;17.60;99.90
1453;DHT22;720;47.738;7.998;2023-09-08T01:31:52;17.60;99.90
1453;DHT22;720;47.738;7.998;2023-09-08T01:34:18;17.60;99.90
1453;DHT22;720;47.738;7.998;2023-09-08T01:36:45;17.60;99.90
1453;DHT22;720;47.738;7.998;2023-09-08T01:39:11;17.70;99.90
1453;DHT22;720;47.738;7.998;2023-09-08T01:41:37;17.70;99.90
1453;DHT22;720;47.738;7.998;2023-09-08T01:44:02;17.70;99.90
1453;DHT22;720;47.738;7.998;2023-09-08T01:46:33;17.70;99.90
1453;DHT22;720;47.738;7.998;2023-09-08T01:48:59;17.70;99.90
1453;DHT22;720;47.738;7.998;2023-09-08T01:51:25;17.60;99.90
1453;DHT22;720;47.738;7.998;2023-09-08T01:53:51;17.50;99.90
1453;DHT22;720;47.738;7.998;2023-09-08T01:56:16;17.50;99.90
1453;DHT22;720;47.738;7.998;2023-09-08T01:58:42;17.50;99.90
1453;DHT22;720;47.738;7.998;2023-09-08T02:01:07;17.40;99.90
1453;DHT22;720;47.738;7.998;2023-09-08T02:03:33;17.40;99.90
1453;DHT22;720;47.738;7.998;2023-09-08T02:05:59;17.40;99.90
1453;DHT22;720;47.738;7.998;2023-09-08T02:08:24;17.50;99.90
1453;DHT22;720;47.738;7.998;2023-09-08T02:10:50;17.60;99.90
1453;DHT22;720;47.738;7.998;2023-09-08T02:13:16;17.70;99.90
1453;DHT22;720;47.738;7.998;2023-09-08T02:15:41;17.70;99.90
1453;DHT22;720;47.738;7.998;2023-09-08T02:18:08;17.70;99.90
1453;DHT22;720;47.738;7.998;2023-09-08T02:20:36;17.70;99.90
1453;DHT22;720;47.738;7.998;2023-09-08T02:23:06;17.60;99.90
1453;DHT22;720;47.738;7.998;2023-09-08T02:25:33;17.60;99.90
1453;DHT22;720;47.738;7.998;2023-09-08T02:27:59;17.60;99.90
1453;DHT22;720;47.738;7.998;2023-09-08T02:30:25;17.60;99.90
1453;DHT22;720;47.738;7.998;2023-09-08T02:32:51;17.60;99.90
1453;DHT22;720;47.738;7.998;2023-09-08T02:35:16;17.50;99.90
1453;DHT22;720;47.738;7.998;2023-09-08T02:37:42;17.60;99.90
1453;DHT22;720;47.738;7.998;2023-09-08T02:40:08;17.60;99.90
1453;DHT22;720;47.738;7.998;2023-09-08T02:42:33;17.60;99.90
1453;DHT22;720;47.738;7.998;2023-09-08T02:44:59;17.60;99.90
1453;DHT22;720;47.738;7.998;2023-09-08T02:47:25;17.60;99.90
1453;DHT22;720;47.738;7.998;2023-09-08T02:49:51;17.70;99.90
1453;DHT22;720;47.738;7.998;2023-09-08T02:52:16;17.60;99.90
1453;DHT22;720;47.738;7.998;2023-09-08T02:54:45;17.60;99.90
1453;DHT22;720;47.738;7.998;2023-09-08T02:57:10;17.50;99.90
1453;DHT22;720;47.738;7.998;2023-09-08T02:59:36;17.50;99.90
1453;DHT22;720;47.738;7.998;2023-09-08T03:02:02;17.40;99.90
1453;DHT22;720;47.738;7.998;2023-09-08T03:04:27;17.40;99.90
1453;DHT22;720;47.738;7.998;2023-09-08T03:06:53;17.40;99.90
1453;DHT22;720;47.738;7.998;2023-09-08T03:09:19;17.40;99.90
1453;DHT22;720;47.738;7.998;2023-09-08T03:11:44;17.30;99.90
1453;DHT22;720;47.738;7.998;2023-09-08T03:14:10;17.20;99.90
1453;DHT22;720;47.738;7.998;2023-09-08T03:16:35;17.20;99.90
1453;DHT22;720;47.738;7.998;2023-09-08T03:19:01;17.30;99.90
1453;DHT22;720;47.738;7.998;2023-09-08T03:21:27;17.40;99.90
1453;DHT22;720;47.738;7.998;2023-09-08T03:23:52;17.40;99.90
1453;DHT22;720;47.738;7.998;2023-09-08T03:26:18;17.40;99.90
1453;DHT22;720;47.738;7.998;2023-09-08T03:28:43;17.40;99.90
1453;DHT22;720;47.738;7.998;2023-09-08T03:31:09;17.40;99.90
1453;DHT22;720;47.738;7.998;2023-09-08T03:33:35;17.30;99.90
1453;DHT22;720;47.738;7.998;2023-09-08T03:36:01;17.30;99.90
1453;DHT22;720;47.738;7.998;2023-09-08T03:38:27;17.30;99.90
1453;DHT22;720;47.738;7.998;2023-09-08T03:40:52;17.30;99.90
1453;DHT22;720;47.738;7.998;2023-09-08T03:43:18;17.30;99.90
1453;DHT22;720;47.738;7.998;2023-09-08T03:45:44;17.30;99.90
1453;DHT22;720;47.738;7.998;2023-09-08T03:48:10;17.40;99.90
1453;DHT22;720;47.738;7.998;2023-09-08T03:50:35;17.40;99.90
1453;DHT22;720;47.738;7.998;2023-09-08T03:53:01;17.50;99.90
1453;DHT22;720;47.738;7.998;2023-09-08T03:55:27;17.50;99.90
1453;DHT22;720;47.738;7.998;2023-09-08T03:57:53;17.40;99.90
1453;DHT22;720;47.738;7.998;2023-09-08T04:00:19;17.40;99.90
1453;DHT22;720;47.738;7.998;2023-09-08T04:02:50;17.40;99.90
1453;DHT22;720;47.738;7.998;2023-09-08T04:05:16;17.40;99.90
1453;DHT22;720;47.738;7.998;2023-09-08T04:07:43;17.40;99.90
1453;DHT22;720;47.738;7.998;2023-09-08T04:10:09;17.30;99.90
1453;DHT22;720;47.738;7.998;2023-09-08T04:12:34;17.20;99.90
1453;DHT22;720;47.738;7.998;2023-09-08T04:15:00;17.20;99.90
1453;DHT22;720;47.738;7.998;2023-09-08T04:17:26;17.20;99.90
1453;DHT22;720;47.738;7.998;2023-09-08T04:19:51;17.10;99.90
1453;DHT22;720;47.738;7.998;2023-09-08T04:22:17;17.20;99.90
1453;DHT22;720;47.738;7.998;2023-09-08T04:24:42;17.20;99.90
1453;DHT22;720;47.738;7.998;2023-09-08T04:27:08;17.30;99.90
1453;DHT22;720;47.738;7.998;2023-09-08T04:29:35;17.30;99.90
1453;DHT22;720;47.738;7.998;2023-09-08T04:32:01;17.30;99.90
1453;DHT22;720;47.738;7.998;2023-09-08T04:34:40;17.30;99.90
1453;DHT22;720;47.738;7.998;2023-09-08T04:37:06;17.40;99.90
1453;DHT22;720;47.738;7.998;2023-09-08T04:39:33;17.30;99.90
1453;DHT22;720;47.738;7.998;2023-09-08T04:41:59;17.20;99.90
1453;DHT22;720;47.738;7.998;2023-09-08T04:44:25;17.30;99.90
1453;DHT22;720;47.738;7.998;2023-09-08T04:46:51;17.30;99.90
1453;DHT22;720;47.738;7.998;2023-09-08T04:49:17;17.40;99.90
1453;DHT22;720;47.738;7.998;2023-09-08T04:51:43;17.40;99.90
1453;DHT22;720;47.738;7.998;2023-09-08T04:54:09;17.40;99.90
1453;DHT22;720;47.738;7.998;2023-09-08T04:56:35;17.50;99.90
1453;DHT22;720;47.738;7.998;2023-09-08T04:59:00;17.50;99.90
1453;DHT22;720;47.738;7.998;2023-09-08T05:01:27;17.60;99.90
1453;DHT22;720;47.738;7.998;2023-09-08T05:03:53;17.60;99.90
1453;DHT22;720;47.738;7.998;2023-09-08T05:06:19;17.60;99.90
1453;DHT22;720;47.738;7.998;2023-09-08T05:08:44;17.40;99.90
1453;DHT22;720;47.738;7.998;2023-09-08T05:11:10;17.40;99.90
1453;DHT22;720;47.738;7.998;2023-09-08T05:13:36;17.30;99.90
1453;DHT22;720;47.738;7.998;2023-09-08T05:16:02;17.30;99.90
1453;DHT22;720;47.738;7.998;2023-09-08T05:18:40;17.30;99.90
1453;DHT22;720;47.738;7.998;2023-09-08T05:21:06;17.40;99.90
1453;DHT22;720;47.738;7.998;2023-09-08T05:23:32;17.50;99.90
1453;DHT22;720;47.738;7.998;2023-09-08T05:25:57;17.60;99.90
1453;DHT22;720;47.738;7.998;2023-09-08T05:28:23;17.70;99.90
1453;DHT22;720;47.738;7.998;2023-09-08T05:30:55;17.70;99.90
1453;DHT22;720;47.738;7.998;2023-09-08T05:33:21;17.80;99.90
1453;DHT22;720;47.738;7.998;2023-09-08T05:35:46;17.70;99.90
1453;DHT22;720;47.738;7.998;2023-09-08T05:38:13;17.60;99.90
1453;DHT22;720;47.738;7.998;2023-09-08T05:40:38;17.60;99.90
1453;DHT22;720;47.738;7.998;2023-09-08T05:43:04;17.60;99.90
1453;DHT22;720;47.738;7.998;2023-09-08T05:45:31;17.70;99.90
1453;DHT22;720;47.738;7.998;2023-09-08T05:47:57;17.70;99.90
1453;DHT22;720;47.738;7.998;2023-09-08T05:50:23;17.70;99.90
1453;DHT22;720;47.738;7.998;2023-09-08T05:52:49;17.60;99.90
1453;DHT22;720;47.738;7.998;2023-09-08T05:55:14;17.60;99.90
1453;DHT22;720;47.738;7.998;2023-09-08T05:57:40;17.60;99.90
1453;DHT22;720;47.738;7.998;2023-09-08T06:00:07;17.70;99.90
1453;DHT22;720;47.738;7.998;2023-09-08T06:02:32;17.70;99.90
1453;DHT22;720;47.738;7.998;2023-09-08T06:04:58;17.70;99.90
1453;DHT22;720;47.738;7.998;2023-09-08T06:07:24;17.70;99.90
1453;DHT22;720;47.738;7.998;2023-09-08T06:09:49;17.80;99.90
1453;DHT22;720;47.738;7.998;2023-09-08T06:12:15;17.80;99.90
1453;DHT22;720;47.738;7.998;2023-09-08T06:14:40;17.90;99.90
1453;DHT22;720;47.738;7.998;2023-09-08T06:17:06;18.00;99.90
1453;DHT22;720;47.738;7.998;2023-09-08T06:19:32;18.20;99.90
1453;DHT22;720;47.738;7.998;2023-09-08T06:21:57;18.40;99.90
1453;DHT22;720;47.738;7.998;2023-09-08T06:24:23;18.70;99.90
1453;DHT22;720;47.738;7.998;2023-09-08T06:26:49;19.00;99.90
1453;DHT22;720;47.738;7.998;2023-09-08T06:29:15;19.20;99.90
1453;DHT22;720;47.738;7.998;2023-09-08T06:31:41;19.40;99.90
1453;DHT22;720;47.738;7.998;2023-09-08T06:34:06;19.70;99.90
1453;DHT22;720;47.738;7.998;2023-09-08T06:36:32;19.80;99.90
1453;DHT22;720;47.738;7.998;2023-09-08T06:38:58;20.00;99.90
1453;DHT22;720;47.738;7.998;2023-09-08T06:41:23;20.10;99.90
1453;DHT22;720;47.738;7.998;2023-09-08T06:43:49;20.30;99.90
1453;DHT22;720;47.738;7.998;2023-09-08T06:46:15;20.50;99.90
1453;DHT22;720;47.738;7.998;2023-09-08T06:48:41;20.70;99.90
1453;DHT22;720;47.738;7.998;2023-09-08T06:51:06;20.90;99.90
1453;DHT22;720;47.738;7.998;2023-09-08T06:53:32;21.20;99.90
1453;DHT22;720;47.738;7.998;2023-09-08T06:55:58;21.50;99.90
1453;DHT22;720;47.738;7.998;2023-09-08T06:58:23;21.90;99.90
1453;DHT22;720;47.738;7.998;2023-09-08T07:00:50;22.30;99.90
1453;DHT22;720;47.738;7.998;2023-09-08T07:03:16;22.70;99.90
1453;DHT22;720;47.738;7.998;2023-09-08T07:05:41;23.20;99.90
1453;DHT22;720;47.738;7.998;2023-09-08T07:08:07;23.80;99.90
1453;DHT22;720;47.738;7.998;2023-09-08T07:10:33;24.70;99.90
1453;DHT22;720;47.738;7.998;2023-09-08T07:12:58;25.50;98.30
1453;DHT22;720;47.738;7.998;2023-09-08T07:15:24;26.40;96.60
1453;DHT22;720;47.738;7.998;2023-09-08T07:17:49;27.20;96.70
1453;DHT22;720;47.738;7.998;2023-09-08T07:20:15;27.90;94.90
1453;DHT22;720;47.738;7.998;2023-09-08T07:22:41;28.70;93.90
1453;DHT22;720;47.738;7.998;2023-09-08T07:25:07;29.80;92.10
1453;DHT22;720;47.738;7.998;2023-09-08T07:27:33;30.90;87.80
1453;DHT22;720;47.738;7.998;2023-09-08T07:29:59;32.20;82.00
1453;DHT22;720;47.738;7.998;2023-09-08T07:32:25;33.60;77.10
1453;DHT22;720;47.738;7.998;2023-09-08T07:34:51;35.00;70.40
1453;DHT22;720;47.738;7.998;2023-09-08T07:37:24;36.20;64.20
1453;DHT22;720;47.738;7.998;2023-09-08T07:39:51;37.30;60.20
1453;DHT22;720;47.738;7.998;2023-09-08T07:42:17;38.30;57.00
1453;DHT22;720;47.738;7.998;2023-09-08T07:44:42;39.30;55.00
1453;DHT22;720;47.738;7.998;2023-09-08T07:47:08;40.20;52.70
1453;DHT22;720;47.738;7.998;2023-09-08T07:49:34;40.90;50.20
1453;DHT22;720;47.738;7.998;2023-09-08T07:52:00;41.50;47.90
1453;DHT22;720;47.738;7.998;2023-09-08T07:54:26;41.90;46.70
1453;DHT22;720;47.738;7.998;2023-09-08T07:56:51;42.10;45.20
1453;DHT22;720;47.738;7.998;2023-09-08T07:59:17;42.40;45.00
1453;DHT22;720;47.738;7.998;2023-09-08T08:01:43;42.80;43.90
1453;DHT22;720;47.738;7.998;2023-09-08T08:04:09;43.20;42.40
1453;DHT22;720;47.738;7.998;2023-09-08T08:06:34;43.40;41.80
1453;DHT22;720;47.738;7.998;2023-09-08T08:09:00;43.70;41.80
1453;DHT22;720;47.738;7.998;2023-09-08T08:11:26;44.00;41.20
1453;DHT22;720;47.738;7.998;2023-09-08T08:13:52;44.30;40.90
1453;DHT22;720;47.738;7.998;2023-09-08T08:16:17;44.40;39.50
1453;DHT22;720;47.738;7.998;2023-09-08T08:18:43;44.50;39.30
1453;DHT22;720;47.738;7.998;2023-09-08T08:21:09;44.50;38.50
1453;DHT22;720;47.738;7.998;2023-09-08T08:23:36;44.70;39.60
1453;DHT22;720;47.738;7.998;2023-09-08T08:26:04;44.90;39.10
1453;DHT22;720;47.738;7.998;2023-09-08T08:28:29;45.30;38.40
1453;DHT22;720;47.738;7.998;2023-09-08T08:30:55;45.30;35.40
1453;DHT22;720;47.738;7.998;2023-09-08T08:33:22;45.10;36.60
1453;DHT22;720;47.738;7.998;2023-09-08T08:35:51;44.80;36.40
1453;DHT22;720;47.738;7.998;2023-09-08T08:38:18;44.70;36.60
1453;DHT22;720;47.738;7.998;2023-09-08T08:40:43;44.60;36.70
1453;DHT22;720;47.738;7.998;2023-09-08T08:43:09;44.40;36.40
1453;DHT22;720;47.738;7.998;2023-09-08T08:45:37;43.90;35.80
1453;DHT22;720;47.738;7.998;2023-09-08T08:48:04;43.30;36.20
1453;DHT22;720;47.738;7.998;2023-09-08T08:50:32;42.50;36.50
1453;DHT22;720;47.738;7.998;2023-09-08T08:52:58;41.40;39.00
1453;DHT22;720;47.738;7.998;2023-09-08T08:55:29;40.60;40.10
1453;DHT22;720;47.738;7.998;2023-09-08T08:58:00;40.70;40.30
1453;DHT22;720;47.738;7.998;2023-09-08T09:00:26;40.60;40.20
1453;DHT22;720;47.738;7.998;2023-09-08T09:02:52;40.80;40.70
1453;DHT22;720;47.738;7.998;2023-09-08T09:05:19;40.70;40.80
1453;DHT22;720;47.738;7.998;2023-09-08T09:07:44;40.60;40.50
1453;DHT22;720;47.738;7.998;2023-09-08T09:10:10;40.90;40.50
1453;DHT22;720;47.738;7.998;2023-09-08T09:12:37;41.00;40.10
1453;DHT22;720;47.738;7.998;2023-09-08T09:15:03;41.20;40.40
1453;DHT22;720;47.738;7.998;2023-09-08T09:17:34;41.40;39.10
1453;DHT22;720;47.738;7.998;2023-09-08T09:20:15;41.60;38.50
1453;DHT22;720;47.738;7.998;2023-09-08T09:22:46;41.90;38.50
1453;DHT22;720;47.738;7.998;2023-09-08T09:25:26;41.70;38.30
1453;DHT22;720;47.738;7.998;2023-09-08T09:27:59;41.60;38.20
1453;DHT22;720;47.738;7.998;2023-09-08T09:30:26;41.70;37.60
1453;DHT22;720;47.738;7.998;2023-09-08T09:33:02;41.70;38.10
1453;DHT22;720;47.738;7.998;2023-09-08T09:35:42;42.10;38.00
1453;DHT22;720;47.738;7.998;2023-09-08T09:38:08;42.60;37.50
1453;DHT22;720;47.738;7.998;2023-09-08T09:40:34;42.50;38.20
1453;DHT22;720;47.738;7.998;2023-09-08T09:42:59;42.10;37.90
1453;DHT22;720;47.738;7.998;2023-09-08T09:45:26;41.10;38.80
1453;DHT22;720;47.738;7.998;2023-09-08T09:47:52;39.60;40.00
1453;DHT22;720;47.738;7.998;2023-09-08T09:50:40;38.10;43.60
1453;DHT22;720;47.738;7.998;2023-09-08T09:55:37;34.80;48.10
1453;DHT22;720;47.738;7.998;2023-09-08T09:58:07;33.60;51.80
1453;DHT22;720;47.738;7.998;2023-09-08T10:00:34;32.70;54.20
1453;DHT22;720;47.738;7.998;2023-09-08T10:03:01;32.10;55.20
1453;DHT22;720;47.738;7.998;2023-09-08T10:05:27;31.40;56.90
1453;DHT22;720;47.738;7.998;2023-09-08T10:07:53;30.50;59.70
1453;DHT22;720;47.738;7.998;2023-09-08T10:10:20;30.20;58.80
1453;DHT22;720;47.738;7.998;2023-09-08T10:12:54;30.50;57.00
1453;DHT22;720;47.738;7.998;2023-09-08T10:15:24;30.50;57.70
1453;DHT22;720;47.738;7.998;2023-09-08T10:17:54;31.10;57.70
1453;DHT22;720;47.738;7.998;2023-09-08T10:20:24;32.30;55.90
1453;DHT22;720;47.738;7.998;2023-09-08T10:25:43;33.00;51.90
1453;DHT22;720;47.738;7.998;2023-09-08T10:28:09;33.80;52.40
1453;DHT22;720;47.738;7.998;2023-09-08T10:30:35;34.20;50.90
1453;DHT22;720;47.738;7.998;2023-09-08T10:33:02;34.60;51.90
1453;DHT22;720;47.738;7.998;2023-09-08T10:35:28;35.20;49.00
1453;DHT22;720;47.738;7.998;2023-09-08T10:38:24;35.20;49.50
1453;DHT22;720;47.738;7.998;2023-09-08T10:40:51;35.20;48.70
1453;DHT22;720;47.738;7.998;2023-09-08T10:43:18;34.90;48.20
1453;DHT22;720;47.738;7.998;2023-09-08T10:45:45;34.70;50.10
1453;DHT22;720;47.738;7.998;2023-09-08T10:48:10;34.40;49.60
1453;DHT22;720;47.738;7.998;2023-09-08T10:50:40;34.20;50.30
1453;DHT22;720;47.738;7.998;2023-09-08T10:53:27;33.20;50.60
1453;DHT22;720;47.738;7.998;2023-09-08T10:55:53;32.50;53.80
1453;DHT22;720;47.738;7.998;2023-09-08T10:58:39;32.30;52.40
1453;DHT22;720;47.738;7.998;2023-09-08T11:01:12;32.30;54.30
1453;DHT22;720;47.738;7.998;2023-09-08T11:06:10;32.40;53.90
1453;DHT22;720;47.738;7.998;2023-09-08T11:08:41;32.00;52.80
1453;DHT22;720;47.738;7.998;2023-09-08T11:11:07;31.60;53.90
1453;DHT22;720;47.738;7.998;2023-09-08T11:13:33;31.30;56.50
1453;DHT22;720;47.738;7.998;2023-09-08T11:15:58;30.70;55.20
1453;DHT22;720;47.738;7.998;2023-09-08T11:18:30;30.30;59.80
1453;DHT22;720;47.738;7.998;2023-09-08T11:20:57;29.70;62.70
1453;DHT22;720;47.738;7.998;2023-09-08T11:23:23;29.10;65.00
1453;DHT22;720;47.738;7.998;2023-09-08T11:25:50;28.70;68.90
1453;DHT22;720;47.738;7.998;2023-09-08T11:28:21;28.60;67.40
1453;DHT22;720;47.738;7.998;2023-09-08T11:30:48;28.90;65.00
1453;DHT22;720;47.738;7.998;2023-09-08T11:33:19;28.90;64.90
1453;DHT22;720;47.738;7.998;2023-09-08T11:35:49;28.90;66.00
1453;DHT22;720;47.738;7.998;2023-09-08T11:38:14;28.80;68.30
1453;DHT22;720;47.738;7.998;2023-09-08T11:40:41;28.50;70.40
1453;DHT22;720;47.738;7.998;2023-09-08T11:43:07;28.10;70.80
1453;DHT22;720;47.738;7.998;2023-09-08T11:45:36;27.70;72.90
1453;DHT22;720;47.738;7.998;2023-09-08T11:48:03;27.20;74.50
1453;DHT22;720;47.738;7.998;2023-09-08T11:50:30;26.80;79.60
1453;DHT22;720;47.738;7.998;2023-09-08T11:52:56;27.00;80.40
1453;DHT22;720;47.738;7.998;2023-09-08T11:55:24;27.40;82.90
1453;DHT22;720;47.738;7.998;2023-09-08T11:57:53;27.80;78.90
1453;DHT22;720;47.738;7.998;2023-09-08T12:00:26;28.40;68.90
1453;DHT22;720;47.738;7.998;2023-09-08T12:02:53;29.00;66.50
1453;DHT22;720;47.738;7.998;2023-09-08T12:07:52;29.70;62.80
1453;DHT22;720;47.738;7.998;2023-09-08T12:10:19;29.70;64.80
1453;DHT22;720;47.738;7.998;2023-09-08T12:12:48;29.40;63.90
1453;DHT22;720;47.738;7.998;2023-09-08T12:15:42;29.40;64.50
1453;DHT22;720;47.738;7.998;2023-09-08T12:18:11;29.50;65.90
1453;DHT22;720;47.738;7.998;2023-09-08T12:20:38;29.40;64.70
1453;DHT22;720;47.738;7.998;2023-09-08T12:23:06;29.40;67.40
1453;DHT22;720;47.738;7.998;2023-09-08T12:25:44;29.10;63.80
1453;DHT22;720;47.738;7.998;2023-09-08T12:28:10;29.10;65.50
1453;DHT22;720;47.738;7.998;2023-09-08T12:30:36;29.10;65.20
1453;DHT22;720;47.738;7.998;2023-09-08T12:33:02;29.30;69.80
1453;DHT22;720;47.738;7.998;2023-09-08T12:35:28;29.60;68.40
1453;DHT22;720;47.738;7.998;2023-09-08T12:38:03;29.80;67.20
1453;DHT22;720;47.738;7.998;2023-09-08T12:40:30;30.00;64.30
1453;DHT22;720;47.738;7.998;2023-09-08T12:42:56;30.20;63.70
1453;DHT22;720;47.738;7.998;2023-09-08T12:45:26;30.40;65.50
1453;DHT22;720;47.738;7.998;2023-09-08T12:47:52;30.40;62.60
1453;DHT22;720;47.738;7.998;2023-09-08T12:50:18;30.40;62.50
1453;DHT22;720;47.738;7.998;2023-09-08T12:52:44;30.40;62.70
1453;DHT22;720;47.738;7.998;2023-09-08T12:55:10;30.20;68.80
1453;DHT22;720;47.738;7.998;2023-09-08T12:57:36;29.70;64.00
1453;DHT22;720;47.738;7.998;2023-09-08T13:00:05;29.30;66.20
1453;DHT22;720;47.738;7.998;2023-09-08T13:02:31;29.00;70.80
1453;DHT22;720;47.738;7.998;2023-09-08T13:04:57;28.80;68.00
1453;DHT22;720;47.738;7.998;2023-09-08T13:07:23;28.60;68.20
1453;DHT22;720;47.738;7.998;2023-09-08T13:09:49;28.60;74.90
1453;DHT22;720;47.738;7.998;2023-09-08T13:12:16;28.40;69.20
1453;DHT22;720;47.738;7.998;2023-09-08T13:14:42;28.30;70.20
1453;DHT22;720;47.738;7.998;2023-09-08T13:17:10;28.20;74.80
1453;DHT22;720;47.738;7.998;2023-09-08T13:19:35;28.20;72.80
1453;DHT22;720;47.738;7.998;2023-09-08T13:22:03;28.30;74.40
1453;DHT22;720;47.738;7.998;2023-09-08T13:24:29;28.50;71.10
1453;DHT22;720;47.738;7.998;2023-09-08T13:26:55;28.70;73.00
1453;DHT22;720;47.738;7.998;2023-09-08T13:29:20;28.80;75.10
1453;DHT22;720;47.738;7.998;2023-09-08T13:31:46;28.80;75.50
1453;DHT22;720;47.738;7.998;2023-09-08T13:34:11;29.00;74.40
1453;DHT22;720;47.738;7.998;2023-09-08T13:36:37;29.00;76.50
1453;DHT22;720;47.738;7.998;2023-09-08T13:39:03;28.80;68.10
1453;DHT22;720;47.738;7.998;2023-09-08T13:41:54;28.80;69.10
1453;DHT22;720;47.738;7.998;2023-09-08T13:44:21;29.00;70.30
1453;DHT22;720;47.738;7.998;2023-09-08T13:46:48;29.10;70.50
1453;DHT22;720;47.738;7.998;2023-09-08T13:49:14;29.10;68.80
1453;DHT22;720;47.738;7.998;2023-09-08T13:51:40;29.10;67.80
1453;DHT22;720;47.738;7.998;2023-09-08T13:54:07;29.00;71.00
1453;DHT22;720;47.738;7.998;2023-09-08T13:56:33;28.90;70.00
1453;DHT22;720;47.738;7.998;2023-09-08T13:58:59;28.60;69.10
1453;DHT22;720;47.738;7.998;2023-09-08T14:01:25;28.50;74.20
1453;DHT22;720;47.738;7.998;2023-09-08T14:03:53;28.40;79.10
1453;DHT22;720;47.738;7.998;2023-09-08T14:06:19;28.20;73.50
1453;DHT22;720;47.738;7.998;2023-09-08T14:08:44;28.20;74.80
1453;DHT22;720;47.738;7.998;2023-09-08T14:11:10;28.30;72.40
1453;DHT22;720;47.738;7.998;2023-09-08T14:13:37;28.40;71.80
1453;DHT22;720;47.738;7.998;2023-09-08T14:16:03;28.20;68.60
1453;DHT22;720;47.738;7.998;2023-09-08T14:18:29;28.10;71.40
1453;DHT22;720;47.738;7.998;2023-09-08T14:20:55;28.00;75.00
1453;DHT22;720;47.738;7.998;2023-09-08T14:23:21;27.80;80.00
1453;DHT22;720;47.738;7.998;2023-09-08T14:25:46;27.50;74.90
1453;DHT22;720;47.738;7.998;2023-09-08T14:28:12;27.40;70.90
1453;DHT22;720;47.738;7.998;2023-09-08T14:30:38;27.50;75.20
1453;DHT22;720;47.738;7.998;2023-09-08T14:33:03;27.30;76.70
1453;DHT22;720;47.738;7.998;2023-09-08T14:35:30;27.20;75.10
1453;DHT22;720;47.738;7.998;2023-09-08T14:37:55;27.10;77.40
1453;DHT22;720;47.738;7.998;2023-09-08T14:40:22;27.00;79.50
1453;DHT22;720;47.738;7.998;2023-09-08T14:42:48;26.70;78.90
1453;DHT22;720;47.738;7.998;2023-09-08T14:45:14;26.50;80.90
1453;DHT22;720;47.738;7.998;2023-09-08T14:47:39;26.30;73.00
1453;DHT22;720;47.738;7.998;2023-09-08T14:50:05;26.20;78.10
1453;DHT22;720;47.738;7.998;2023-09-08T14:52:31;26.00;78.80
1453;DHT22;720;47.738;7.998;2023-09-08T14:54:57;25.80;80.80
1453;DHT22;720;47.738;7.998;2023-09-08T14:57:23;25.70;76.20
1453;DHT22;720;47.738;7.998;2023-09-08T14:59:48;25.60;81.10
1453;DHT22;720;47.738;7.998;2023-09-08T15:02:14;25.40;82.00
1453;DHT22;720;47.738;7.998;2023-09-08T15:04:40;25.20;82.80
1453;DHT22;720;47.738;7.998;2023-09-08T15:07:06;25.10;82.00
1453;DHT22;720;47.738;7.998;2023-09-08T15:09:32;24.90;83.90
1453;DHT22;720;47.738;7.998;2023-09-08T15:11:58;24.80;83.20
1453;DHT22;720;47.738;7.998;2023-09-08T15:14:24;24.70;86.20
1453;DHT22;720;47.738;7.998;2023-09-08T15:16:50;24.60;87.40
1453;DHT22;720;47.738;7.998;2023-09-08T15:19:15;24.50;88.70
1453;DHT22;720;47.738;7.998;2023-09-08T15:21:41;24.40;89.50
1453;DHT22;720;47.738;7.998;2023-09-08T15:24:07;24.20;89.60
1453;DHT22;720;47.738;7.998;2023-09-08T15:26:33;24.10;90.30
1453;DHT22;720;47.738;7.998;2023-09-08T15:28:58;24.00;90.70
1453;DHT22;720;47.738;7.998;2023-09-08T15:31:25;24.00;90.20
1453;DHT22;720;47.738;7.998;2023-09-08T15:33:50;24.00;90.90
1453;DHT22;720;47.738;7.998;2023-09-08T15:36:17;23.90;91.30
1453;DHT22;720;47.738;7.998;2023-09-08T15:38:43;23.90;91.50
1453;DHT22;720;47.738;7.998;2023-09-08T15:43:39;23.80;92.20
1453;DHT22;720;47.738;7.998;2023-09-08T15:46:06;23.80;92.70
1453;DHT22;720;47.738;7.998;2023-09-08T15:48:35;23.70;92.90
1453;DHT22;720;47.738;7.998;2023-09-08T15:51:01;23.70;93.20
1453;DHT22;720;47.738;7.998;2023-09-08T15:53:27;23.60;93.30
1453;DHT22;720;47.738;7.998;2023-09-08T15:55:52;23.60;93.60
1453;DHT22;720;47.738;7.998;2023-09-08T15:58:18;23.60;93.60
1453;DHT22;720;47.738;7.998;2023-09-08T16:00:44;23.60;93.00
1453;DHT22;720;47.738;7.998;2023-09-08T16:03:09;23.60;93.70
1453;DHT22;720;47.738;7.998;2023-09-08T16:05:35;23.50;93.70
1453;DHT22;720;47.738;7.998;2023-09-08T16:08:00;23.40;94.30
1453;DHT22;720;47.738;7.998;2023-09-08T16:10:26;23.30;93.80
1453;DHT22;720;47.738;7.998;2023-09-08T16:12:52;23.30;93.20
1453;DHT22;720;47.738;7.998;2023-09-08T16:15:19;23.40;93.80
1453;DHT22;720;47.738;7.998;2023-09-08T16:17:44;23.50;94.30
1453;DHT22;720;47.738;7.998;2023-09-08T16:20:10;23.50;94.40
1453;DHT22;720;47.738;7.998;2023-09-08T16:22:36;23.50;94.10
1453;DHT22;720;47.738;7.998;2023-09-08T16:25:01;23.50;93.60
1453;DHT22;720;47.738;7.998;2023-09-08T16:27:27;23.40;94.10
1453;DHT22;720;47.738;7.998;2023-09-08T16:29:54;23.30;94.20
1453;DHT22;720;47.738;7.998;2023-09-08T16:32:19;23.30;94.00